Time;durP1;ratioP1;P1;durP2;ratioP2;P2;SDS_P1;SDS_P2;PMS_P1;PMS_P2;Temp;Humidity;BMP_temperature;BMP_pressure;BME280_temperature;BME280_humidity;BME280_pressure;Samples;Min_cycle;Max_cycle;Signal;HPM_P1;HPM_P2
2023/12/22 00:02:17;;;;;;;14.05;2.03;;;7.50;99.90;;;;;;6340386;22;20007;-89
2023/12/22 00:04:42;;;;;;;14.40;3.08;;;7.50;99.90;;;;;;6337147;22;20026;-89
2023/12/22 00:07:08;;;;;;;17.08;2.55;;;7.50;99.90;;;;;;6336558;22;20024;-90
2023/12/22 00:09:33;;;;;;;16.00;3.08;;;8.00;99.90;;;;;;6337097;22;19995;-89
2023/12/22 00:11:59;;;;;;;16.20;3.03;;;7.50;99.90;;;;;;6342767;22;20010;-88
2023/12/22 00:14:24;;;;;;;16.90;2.63;;;7.50;99.90;;;;;;6338548;22;20002;-87
2023/12/22 00:16:50;;;;;;;11.80;2.75;;;7.50;99.90;;;;;;6337548;22;20002;-90
2023/12/22 00:19:15;;;;;;;19.17;3.75;;;7.50;99.90;;;;;;6338917;22;20000;-89
2023/12/22 00:21:42;;;;;;;25.05;3.83;;;7.50;99.90;;;;;;6337853;22;20042;-92
2023/12/22 00:24:07;;;;;;;22.40;3.92;;;7.60;99.90;;;;;;6342530;22;20003;-91
2023/12/22 00:26:34;;;;;;;20.85;3.67;;;7.60;99.90;;;;;;6338456;22;20010;-91
2023/12/22 00:28:59;;;;;;;30.80;4.43;;;7.60;99.90;;;;;;6344520;22;20426;-90
2023/12/22 00:31:25;;;;;;;26.35;3.35;;;7.70;99.90;;;;;;6347935;22;20010;-91
2023/12/22 00:33:51;;;;;;;25.20;3.88;;;7.70;99.90;;;;;;6347804;22;20052;-89
2023/12/22 00:36:18;;;;;;;33.50;3.67;;;7.70;99.90;;;;;;6338766;22;20002;-90
2023/12/22 00:38:43;;;;;;;29.55;5.30;;;7.80;99.90;;;;;;6343032;22;20002;-91
2023/12/22 00:41:10;;;;;;;19.42;4.75;;;7.80;99.90;;;;;;6341067;22;20351;-92
2023/12/22 00:43:36;;;;;;;26.75;4.78;;;7.80;99.90;;;;;;6342472;22;19998;-92
2023/12/22 00:46:02;;;;;;;24.48;3.83;;;7.90;99.90;;;;;;6338280;22;20014;-91
2023/12/22 00:48:28;;;;;;;27.02;4.07;;;7.90;99.90;;;;;;6338667;22;20026;-91
2023/12/22 00:50:54;;;;;;;23.05;3.83;;;8.00;99.90;;;;;;6359430;22;20015;-92
2023/12/22 00:53:19;;;;;;;24.45;4.35;;;8.00;99.90;;;;;;6358141;22;20072;-92
2023/12/22 00:55:45;;;;;;;24.25;3.33;;;8.10;99.90;;;;;;6344625;22;20026;-93
2023/12/22 00:58:16;;;;;;;18.52;3.20;;;8.20;99.90;;;;;;6342437;22;19995;-91
2023/12/22 01:00:42;;;;;;;16.92;2.80;;;8.20;99.90;;;;;;6338826;22;19995;-93
2023/12/22 01:03:07;;;;;;;21.52;3.70;;;8.30;99.90;;;;;;6338193;22;20014;-92
2023/12/22 01:05:33;;;;;;;16.33;3.05;;;8.30;99.90;;;;;;6340434;22;19999;-90
2023/12/22 01:07:58;;;;;;;15.00;3.55;;;8.40;99.90;;;;;;6347300;22;20005;-92
2023/12/22 01:10:24;;;;;;;16.38;3.60;;;8.40;99.90;;;;;;6340134;22;20003;-91
2023/12/22 01:12:50;;;;;;;14.57;2.90;;;8.40;99.90;;;;;;6344721;22;20013;-91
2023/12/22 01:15:15;;;;;;;21.88;3.45;;;8.50;99.90;;;;;;6357905;22;20021;-90
2023/12/22 01:17:41;;;;;;;23.42;3.88;;;8.50;99.90;;;;;;6349340;22;20003;-91
2023/12/22 01:20:06;;;;;;;21.15;3.15;;;8.50;99.90;;;;;;6344536;22;20011;-91
2023/12/22 01:22:34;;;;;;;20.55;3.35;;;8.50;99.90;;;;;;6345871;22;20312;-90
2023/12/22 01:25:01;;;;;;;17.60;3.28;;;8.50;99.90;;;;;;6347971;22;20003;-89
2023/12/22 01:27:27;;;;;;;21.55;3.28;;;8.50;99.90;;;;;;6346253;22;19995;-88
2023/12/22 01:29:52;;;;;;;22.85;3.25;;;8.50;99.90;;;;;;6337242;22;20462;-87
2023/12/22 01:32:19;;;;;;;14.60;3.25;;;8.50;99.90;;;;;;6338555;22;20323;-89
2023/12/22 01:34:44;;;;;;;23.90;4.32;;;8.50;99.90;;;;;;6338627;22;20003;-88
2023/12/22 01:37:10;;;;;;;19.10;3.72;;;8.50;99.90;;;;;;6340075;22;20407;-90
2023/12/22 01:39:35;;;;;;;19.23;3.60;;;8.50;99.90;;;;;;6340473;22;20415;-87
2023/12/22 01:42:01;;;;;;;18.67;2.70;;;8.60;99.90;;;;;;6349143;22;20010;-88
2023/12/22 01:44:27;;;;;;;27.13;3.10;;;8.60;99.90;;;;;;6343250;22;19999;-89
2023/12/22 01:46:53;;;;;;;15.48;4.45;;;9.30;99.90;;;;;;6356440;22;20007;-89
2023/12/22 01:49:21;;;;;;;14.57;2.22;;;8.60;99.90;;;;;;6341100;22;20074;-88
2023/12/22 01:51:49;;;;;;;14.63;3.25;;;8.60;99.90;;;;;;6338782;22;20015;-89
2023/12/22 01:54:18;;;;;;;16.75;3.58;;;8.60;99.90;;;;;;6337670;22;20423;-89
2023/12/22 01:56:44;;;;;;;14.82;3.63;;;8.60;99.90;;;;;;6338497;22;20086;-88
2023/12/22 01:59:11;;;;;;;17.95;3.70;;;8.60;99.90;;;;;;6338577;22;19999;-89
2023/12/22 02:01:37;;;;;;;23.15;2.95;;;8.70;99.90;;;;;;6339842;22;20003;-89
2023/12/22 02:04:04;;;;;;;18.30;3.22;;;8.60;99.90;;;;;;6340044;22;20034;-88
2023/12/22 02:06:30;;;;;;;24.23;3.13;;;8.60;99.90;;;;;;6342695;22;20022;-87
2023/12/22 02:08:57;;;;;;;16.95;3.40;;;8.60;99.90;;;;;;6344133;22;20006;-88
2023/12/22 02:11:23;;;;;;;18.73;3.88;;;9.10;99.90;;;;;;6339573;22;20018;-88
2023/12/22 02:13:49;;;;;;;15.60;3.85;;;8.60;99.90;;;;;;6339497;22;19983;-88
2023/12/22 02:16:25;;;;;;;14.38;4.13;;;8.60;99.90;;;;;;6344249;22;20028;-88
2023/12/22 02:18:55;;;;;;;27.17;3.40;;;8.70;99.90;;;;;;6338361;22;19995;-89
2023/12/22 02:21:21;;;;;;;13.90;3.15;;;8.70;99.90;;;;;;6339422;22;20015;-88
2023/12/22 02:23:47;;;;;;;23.38;4.15;;;8.60;99.90;;;;;;6343299;22;19999;-88
2023/12/22 02:26:41;;;;;;;18.30;3.78;;;9.80;99.90;;;;;;6338576;22;20083;-88
2023/12/22 02:29:09;;;;;;;18.73;3.35;;;8.70;99.90;;;;;;6338958;22;20474;-87
2023/12/22 02:31:44;;;;;;;17.98;3.80;;;8.70;99.90;;;;;;6338585;22;20093;-88
2023/12/22 02:34:13;;;;;;;21.58;4.30;;;8.70;99.90;;;;;;6338083;22;20003;-88
2023/12/22 02:36:40;;;;;;;23.25;4.70;;;8.70;99.90;;;;;;6338176;22;20006;-87
2023/12/22 02:39:08;;;;;;;15.88;3.08;;;8.80;99.90;;;;;;6344383;22;20078;-88
2023/12/22 02:41:35;;;;;;;20.65;3.20;;;8.80;99.90;;;;;;6355245;22;19999;-88
2023/12/22 02:44:01;;;;;;;29.17;4.63;;;8.80;99.90;;;;;;6346889;22;20014;-88
2023/12/22 02:46:27;;;;;;;19.25;2.90;;;8.80;99.90;;;;;;6343471;22;20029;-89
2023/12/22 02:48:53;;;;;;;19.77;3.08;;;8.80;99.90;;;;;;6338252;22;20003;-88
2023/12/22 02:51:18;;;;;;;18.40;2.95;;;8.90;99.90;;;;;;6338756;22;20006;-88
2023/12/22 02:53:44;;;;;;;12.38;2.55;;;8.80;99.90;;;;;;6339381;22;20030;-87
2023/12/22 02:56:09;;;;;;;17.73;3.00;;;8.90;99.90;;;;;;6336260;22;20419;-87
2023/12/22 02:58:35;;;;;;;19.48;3.35;;;8.90;99.90;;;;;;6337363;22;20418;-88
2023/12/22 03:01:00;;;;;;;13.38;3.33;;;8.90;99.90;;;;;;6338992;22;20026;-88
2023/12/22 03:03:26;;;;;;;18.92;3.53;;;8.90;99.90;;;;;;6337889;22;20009;-87
2023/12/22 03:05:51;;;;;;;21.33;2.22;;;8.90;99.90;;;;;;6337840;22;20186;-88
2023/12/22 03:08:17;;;;;;;15.30;3.38;;;8.90;99.90;;;;;;6339773;22;20049;-87
2023/12/22 03:10:43;;;;;;;20.95;3.53;;;8.80;99.90;;;;;;6339465;22;20063;-87
2023/12/22 03:13:08;;;;;;;16.77;3.75;;;8.90;99.90;;;;;;6338872;22;20449;-87
2023/12/22 03:15:34;;;;;;;14.68;3.00;;;8.90;99.90;;;;;;6340002;22;20314;-88
2023/12/22 03:17:59;;;;;;;19.10;3.72;;;9.70;99.90;;;;;;6337619;22;19995;-88
2023/12/22 03:20:25;;;;;;;17.38;3.05;;;8.90;99.90;;;;;;6338995;22;20014;-87
2023/12/22 03:22:50;;;;;;;17.58;3.30;;;8.60;99.90;;;;;;6336374;22;20380;-88
2023/12/22 03:25:16;;;;;;;11.82;2.40;;;8.90;99.90;;;;;;6339296;22;20476;-87
2023/12/22 03:27:43;;;;;;;16.33;2.92;;;8.90;99.90;;;;;;6338566;22;20002;-87
2023/12/22 03:30:09;;;;;;;15.60;2.65;;;8.90;99.90;;;;;;6338833;22;20003;-87
2023/12/22 03:32:34;;;;;;;10.63;3.30;;;8.90;99.90;;;;;;6340149;22;20070;-87
2023/12/22 03:35:00;;;;;;;18.00;3.15;;;9.00;99.90;;;;;;6341494;22;19994;-88
2023/12/22 03:37:25;;;;;;;18.40;3.05;;;8.90;99.90;;;;;;6350509;22;20011;-88
2023/12/22 03:39:51;;;;;;;13.98;3.20;;;8.90;99.90;;;;;;6345211;22;20037;-89
2023/12/22 03:42:16;;;;;;;19.63;3.75;;;8.90;99.90;;;;;;6340655;22;20006;-88
2023/12/22 03:44:42;;;;;;;19.92;3.40;;;9.00;99.90;;;;;;6337635;22;20438;-88
2023/12/22 03:47:07;;;;;;;18.25;3.55;;;8.90;99.90;;;;;;6338089;22;20011;-89
2023/12/22 03:49:33;;;;;;;15.32;3.13;;;8.90;99.90;;;;;;6345729;22;19991;-88
2023/12/22 03:51:58;;;;;;;21.65;3.00;;;8.90;99.90;;;;;;6338440;22;20081;-87
2023/12/22 03:54:24;;;;;;;25.30;3.38;;;8.90;99.90;;;;;;6338298;22;19999;-87
2023/12/22 03:56:50;;;;;;;23.20;3.78;;;8.90;99.90;;;;;;6337702;22;20003;-87
2023/12/22 03:59:18;;;;;;;20.67;3.88;;;8.90;99.90;;;;;;6335684;22;20081;-86
2023/12/22 04:01:44;;;;;;;17.77;2.72;;;8.90;99.90;;;;;;6337659;22;20014;-88
2023/12/22 04:04:09;;;;;;;16.98;2.58;;;8.90;99.90;;;;;;6337618;22;20007;-87
2023/12/22 04:06:39;;;;;;;23.13;3.65;;;8.90;99.90;;;;;;6337604;22;20010;-88
2023/12/22 04:09:05;;;;;;;19.35;3.42;;;9.00;99.90;;;;;;6338599;22;20006;-88
2023/12/22 04:11:32;;;;;;;17.10;3.15;;;9.00;99.90;;;;;;6337925;22;20105;-86
2023/12/22 04:13:57;;;;;;;21.98;3.35;;;9.00;99.90;;;;;;6337159;22;20495;-88
2023/12/22 04:16:35;;;;;;;12.80;2.58;;;9.10;99.90;;;;;;6335844;22;20030;-89
2023/12/22 04:19:00;;;;;;;16.77;3.83;;;9.10;99.90;;;;;;6334583;22;20002;-88
2023/12/22 04:21:26;;;;;;;11.68;2.25;;;9.00;99.90;;;;;;6337129;22;20477;-88
2023/12/22 04:23:52;;;;;;;25.98;3.45;;;9.10;99.90;;;;;;6337888;22;20489;-87
2023/12/22 04:26:30;;;;;;;23.85;3.42;;;9.10;99.90;;;;;;6336823;22;19999;-86
2023/12/22 04:28:55;;;;;;;16.40;2.88;;;9.20;99.90;;;;;;6337650;22;20002;-88
2023/12/22 04:31:21;;;;;;;16.48;3.15;;;9.80;99.90;;;;;;6353832;22;20002;-88
2023/12/22 04:33:46;;;;;;;15.85;3.17;;;9.10;99.90;;;;;;6342996;22;20085;-89
2023/12/22 04:36:12;;;;;;;11.90;2.67;;;9.10;99.90;;;;;;6338776;22;20022;-88
2023/12/22 04:38:50;;;;;;;12.75;3.17;;;9.10;99.90;;;;;;6335679;22;20008;-88
2023/12/22 04:41:16;;;;;;;19.98;2.80;;;9.10;99.90;;;;;;6336061;22;20003;-88
2023/12/22 04:43:42;;;;;;;13.82;2.30;;;9.20;99.90;;;;;;6337126;22;20014;-88
2023/12/22 04:46:07;;;;;;;13.60;2.78;;;9.20;99.90;;;;;;6337480;22;19999;-89
2023/12/22 04:48:33;;;;;;;13.60;3.22;;;9.20;99.90;;;;;;6337756;22;20010;-88
2023/12/22 04:50:59;;;;;;;12.57;2.83;;;9.20;99.90;;;;;;6343135;22;20090;-88
2023/12/22 04:53:25;;;;;;;14.73;2.75;;;9.60;99.90;;;;;;6339229;22;20033;-88
2023/12/22 04:55:50;;;;;;;18.38;3.35;;;9.20;99.90;;;;;;6337382;22;20040;-87
2023/12/22 04:58:16;;;;;;;13.98;3.22;;;9.20;99.90;;;;;;6337853;22;20027;-88
2023/12/22 05:00:42;;;;;;;19.15;3.00;;;9.20;99.90;;;;;;6335986;22;19995;-86
2023/12/22 05:03:08;;;;;;;15.30;2.00;;;9.20;99.90;;;;;;6336398;22;20009;-87
2023/12/22 05:05:33;;;;;;;15.35;2.75;;;9.20;99.90;;;;;;6336869;22;20415;-88
2023/12/22 05:07:59;;;;;;;19.75;2.80;;;9.20;99.90;;;;;;6337425;22;20445;-88
2023/12/22 05:10:24;;;;;;;14.57;2.58;;;9.20;99.90;;;;;;6337953;22;20372;-87
2023/12/22 05:12:50;;;;;;;13.82;2.72;;;9.20;99.90;;;;;;6337891;22;20064;-87
2023/12/22 05:15:16;;;;;;;13.57;2.65;;;9.20;99.90;;;;;;6337564;22;19999;-88
2023/12/22 05:17:41;;;;;;;16.25;3.30;;;9.80;99.90;;;;;;6338399;22;20015;-88
2023/12/22 05:20:09;;;;;;;24.92;3.92;;;9.30;99.90;;;;;;6339411;22;20312;-89
2023/12/22 05:22:36;;;;;;;15.25;3.28;;;9.30;99.90;;;;;;6338210;22;20030;-88
2023/12/22 05:25:02;;;;;;;21.10;4.03;;;10.10;99.90;;;;;;6341706;22;20002;-89
2023/12/22 05:27:27;;;;;;;14.65;2.63;;;9.30;99.90;;;;;;6348458;22;20439;-91
2023/12/22 05:29:53;;;;;;;13.52;2.92;;;9.30;99.90;;;;;;6341264;22;20064;-88
2023/12/22 05:32:18;;;;;;;13.57;2.90;;;9.30;99.90;;;;;;6339199;22;20454;-90
2023/12/22 05:34:44;;;;;;;13.55;3.75;;;9.30;99.90;;;;;;6339158;22;20129;-88
2023/12/22 05:37:09;;;;;;;22.95;3.38;;;9.30;99.90;;;;;;6338265;22;20088;-89
2023/12/22 05:39:35;;;;;;;21.60;3.65;;;9.30;99.90;;;;;;6338412;22;20007;-87
2023/12/22 05:42:01;;;;;;;17.30;3.15;;;9.30;99.90;;;;;;6336153;22;20089;-89
2023/12/22 05:44:29;;;;;;;14.40;3.05;;;9.30;99.90;;;;;;6336062;22;20069;-89
2023/12/22 05:46:56;;;;;;;19.30;3.45;;;9.30;99.90;;;;;;6338255;22;20017;-87
2023/12/22 05:49:23;;;;;;;19.73;3.22;;;9.30;99.90;;;;;;6337674;22;20323;-88
2023/12/22 05:51:49;;;;;;;14.25;3.60;;;9.30;99.90;;;;;;6338592;22;20014;-88
2023/12/22 05:54:16;;;;;;;17.23;3.95;;;9.30;99.90;;;;;;6339436;22;20003;-88
2023/12/22 05:56:42;;;;;;;17.58;3.10;;;9.30;99.90;;;;;;6340037;22;20040;-89
2023/12/22 05:59:08;;;;;;;21.40;4.47;;;9.40;99.90;;;;;;6339357;22;19999;-88
2023/12/22 06:01:34;;;;;;;24.52;4.25;;;9.40;99.90;;;;;;6335563;22;20013;-87
2023/12/22 06:03:59;;;;;;;28.20;4.68;;;9.40;99.90;;;;;;6337582;22;20415;-87
2023/12/22 06:06:27;;;;;;;23.70;5.13;;;9.40;99.90;;;;;;6337327;22;20442;-86
2023/12/22 06:08:52;;;;;;;29.92;4.97;;;9.40;99.90;;;;;;6338298;22;20151;-87
2023/12/22 06:11:18;;;;;;;31.38;5.40;;;9.40;99.90;;;;;;6337819;22;20007;-86
2023/12/22 06:13:44;;;;;;;27.40;5.50;;;9.40;99.90;;;;;;6338960;22;20010;-88
2023/12/22 06:16:14;;;;;;;31.25;5.85;;;9.40;99.90;;;;;;6311155;22;20006;-86
2023/12/22 06:18:40;;;;;;;26.88;4.95;;;9.50;99.90;;;;;;6342743;22;20003;-87
2023/12/22 06:21:06;;;;;;;32.97;5.18;;;9.40;99.90;;;;;;6348397;22;20023;-88
2023/12/22 06:23:31;;;;;;;32.85;6.40;;;9.50;99.90;;;;;;6340626;22;20037;-87
2023/12/22 06:25:57;;;;;;;30.00;6.50;;;9.40;99.90;;;;;;6335524;22;20002;-87
2023/12/22 06:28:23;;;;;;;33.42;5.63;;;9.40;99.90;;;;;;6336386;22;20021;-87
2023/12/22 06:30:48;;;;;;;37.90;6.30;;;9.40;99.90;;;;;;6335994;22;19991;-87
2023/12/22 06:33:14;;;;;;;40.72;6.00;;;9.40;99.90;;;;;;6336562;22;20003;-88
2023/12/22 06:35:41;;;;;;;37.72;5.78;;;10.40;99.90;;;;;;6337906;22;20063;-88
2023/12/22 06:38:10;;;;;;;54.85;8.55;;;9.50;99.90;;;;;;6338252;22;20002;-88
2023/12/22 06:40:35;;;;;;;37.13;5.68;;;9.50;99.90;;;;;;6337781;22;19999;-89
2023/12/22 06:43:01;;;;;;;29.08;6.10;;;9.50;99.90;;;;;;6338043;22;20003;-89
2023/12/22 06:45:27;;;;;;;36.92;5.53;;;10.40;99.90;;;;;;6340424;22;20017;-89
2023/12/22 06:48:06;;;;;;;37.17;6.18;;;9.50;99.90;;;;;;6331853;22;20002;-88
2023/12/22 06:50:32;;;;;;;30.70;6.57;;;9.60;99.90;;;;;;6348268;22;20003;-89
2023/12/22 06:53:01;;;;;;;40.05;7.70;;;9.60;99.90;;;;;;6349849;22;20458;-89
2023/12/22 06:55:27;;;;;;;38.33;7.20;;;10.70;99.90;;;;;;6346005;22;19998;-89
2023/12/22 06:57:57;;;;;;;35.45;6.32;;;9.50;99.90;;;;;;6310765;22;20279;-88
2023/12/22 07:00:24;;;;;;;;;;;8.70;99.90;;;;;;6344085;22;20419;-90
2023/12/22 07:02:49;;;;;;;33.92;7.07;;;9.50;99.90;;;;;;6357044;22;19910;-91
2023/12/22 07:05:22;;;;;;;37.08;7.00;;;10.50;99.90;;;;;;6354660;22;20435;-89
2023/12/22 07:07:47;;;;;;;36.13;5.78;;;10.70;99.90;;;;;;6347840;22;20032;-90
2023/12/22 07:10:13;;;;;;;40.50;7.15;;;10.40;99.90;;;;;;6348509;22;20003;-91
2023/12/22 07:12:41;;;;;;;43.33;6.90;;;10.40;99.90;;;;;;6351423;22;20002;-90
2023/12/22 07:15:07;;;;;;;36.58;7.05;;;9.60;99.90;;;;;;6355609;22;20019;-91
2023/12/22 07:17:45;;;;;;;24.17;4.57;;;9.60;99.90;;;;;;6348090;22;20003;-90
2023/12/22 07:20:11;;;;;;;37.17;6.40;;;9.60;99.90;;;;;;6344297;22;20052;-91
2023/12/22 07:22:36;;;;;;;34.70;5.57;;;9.90;99.90;;;;;;6346177;22;19998;-91
2023/12/22 07:25:02;;;;;;;22.70;5.18;;;9.70;99.90;;;;;;6342223;22;20026;-89
2023/12/22 07:27:27;;;;;;;30.25;6.40;;;9.70;99.90;;;;;;6339655;22;20010;-90
2023/12/22 07:30:19;;;;;;;43.70;6.68;;;9.70;99.90;;;;;;6340246;22;20007;-91
2023/12/22 07:32:47;;;;;;;43.08;6.32;;;9.60;99.90;;;;;;6334857;22;20011;-92
2023/12/22 07:35:31;;;;;;;26.10;4.90;;;10.00;99.90;;;;;;6339547;22;20074;-92
2023/12/22 07:37:56;;;;;;;31.38;5.70;;;10.50;99.90;;;;;;6338909;22;20006;-90
2023/12/22 07:40:22;;;;;;;30.75;5.53;;;10.50;99.90;;;;;;6339774;22;19999;-92
2023/12/22 07:43:00;;;;;;;23.00;6.00;;;10.20;99.90;;;;;;6339311;22;20022;-92
2023/12/22 07:45:26;;;;;;;30.13;4.90;;;9.60;99.90;;;;;;6338984;22;20006;-92
2023/12/22 07:48:04;;;;;;;22.10;4.90;;;10.40;99.90;;;;;;6339114;22;20314;-91
2023/12/22 07:50:33;;;;;;;30.15;5.60;;;9.60;99.90;;;;;;6340491;22;20003;-93
2023/12/22 07:52:59;;;;;;;29.67;4.95;;;9.70;99.90;;;;;;6338510;22;20010;-90
2023/12/22 07:55:25;;;;;;;21.58;4.05;;;9.60;99.90;;;;;;6337762;22;20208;-89
2023/12/22 07:58:02;;;;;;;25.08;4.47;;;10.70;99.90;;;;;;6336842;22;20005;-91
2023/12/22 08:00:27;;;;;;;25.13;4.50;;;10.40;99.90;;;;;;6350241;22;20020;-92
2023/12/22 08:02:54;;;;;;;33.78;5.07;;;10.60;99.90;;;;;;6342971;22;20435;-94
2023/12/22 08:05:21;;;;;;;22.73;4.63;;;9.60;99.90;;;;;;6347830;22;20076;-92
2023/12/22 08:07:54;;;;;;;23.95;4.93;;;10.30;99.90;;;;;;6358188;22;20018;-91
2023/12/22 08:10:20;;;;;;;29.73;5.43;;;10.20;99.90;;;;;;6351793;22;20433;-87
2023/12/22 08:12:46;;;;;;;23.33;4.28;;;9.50;99.90;;;;;;6341315;22;20007;-93
2023/12/22 08:15:12;;;;;;;22.30;4.80;;;11.00;99.90;;;;;;6337994;22;19999;-91
2023/12/22 08:17:47;;;;;;;14.35;3.40;;;10.00;99.90;;;;;;6344746;22;20077;-90
2023/12/22 08:20:18;;;;;;;19.77;3.67;;;9.50;99.90;;;;;;6337793;22;20085;-88
2023/12/22 08:22:47;;;;;;;21.98;3.50;;;9.50;99.90;;;;;;6350445;22;20018;-92
2023/12/22 08:25:23;;;;;;;17.48;2.85;;;9.50;99.90;;;;;;6357012;22;20091;-89
2023/12/22 08:27:58;;;;;;;15.73;3.25;;;10.50;99.90;;;;;;6337298;22;20003;-88
2023/12/22 08:30:27;;;;;;;20.65;3.83;;;11.10;99.90;;;;;;6346412;22;20014;-90
2023/12/22 08:32:53;;;;;;;18.05;3.30;;;9.60;99.90;;;;;;6339632;22;20098;-89
2023/12/22 08:35:19;;;;;;;17.17;3.33;;;9.60;99.90;;;;;;6338899;22;20018;-89
2023/12/22 08:37:53;;;;;;;15.35;2.80;;;9.60;99.90;;;;;;6343147;22;20363;-94
2023/12/22 08:40:25;;;;;;;22.10;3.22;;;9.70;99.90;;;;;;6344041;22;20113;-91
2023/12/22 08:42:54;;;;;;;16.30;3.03;;;9.70;99.90;;;;;;6342743;22;20021;-91
2023/12/22 08:45:21;;;;;;;10.48;1.80;;;9.70;99.90;;;;;;6361461;22;20009;-90
2023/12/22 08:47:56;;;;;;;18.50;3.58;;;10.90;99.90;;;;;;6366863;22;20022;-84
2023/12/22 08:50:23;;;;;;;13.82;3.00;;;9.60;99.90;;;;;;6369178;22;20437;-88
2023/12/22 08:52:48;;;;;;;21.08;3.55;;;10.60;99.90;;;;;;6370988;22;20003;-92
2023/12/22 08:55:16;;;;;;;22.00;2.47;;;9.70;99.90;;;;;;6367816;22;20007;-90
2023/12/22 08:57:41;;;;;;;13.38;2.13;;;8.80;99.90;;;;;;6368335;22;20012;-89
2023/12/22 09:00:23;;;;;;;10.18;2.10;;;10.50;99.90;;;;;;6370000;22;20028;-91
2023/12/22 09:02:49;;;;;;;10.45;1.95;;;10.60;99.90;;;;;;6389403;22;20013;-91
2023/12/22 09:05:14;;;;;;;13.95;2.65;;;9.60;99.90;;;;;;6370573;22;20070;-91
2023/12/22 09:07:40;;;;;;;8.95;1.55;;;9.70;99.90;;;;;;6372234;22;20029;-92
2023/12/22 09:10:08;;;;;;;17.88;2.25;;;9.70;99.90;;;;;;6370125;22;20002;-86
2023/12/22 09:12:35;;;;;;;12.93;2.08;;;9.70;99.90;;;;;;6383196;22;20089;-93
2023/12/22 09:15:00;;;;;;;13.05;1.92;;;9.80;99.90;;;;;;6384578;22;20005;-91
2023/12/22 09:17:33;;;;;;;13.48;2.38;;;9.70;99.90;;;;;;6386394;22;20003;-93
2023/12/22 09:19:59;;;;;;;11.23;1.80;;;10.70;99.90;;;;;;6373433;22;20013;-93
2023/12/22 09:22:25;;;;;;;14.32;2.38;;;10.90;99.90;;;;;;6373040;22;20002;-92
2023/12/22 09:25:09;;;;;;;8.15;1.55;;;9.70;99.90;;;;;;6371179;22;20457;-93
2023/12/22 09:27:35;;;;;;;12.35;1.95;;;10.70;99.90;;;;;;6372702;22;20086;-91
2023/12/22 09:30:00;;;;;;;11.00;2.25;;;9.90;99.90;;;;;;6374168;22;20002;-91
2023/12/22 09:32:26;;;;;;;10.25;1.65;;;10.00;99.90;;;;;;6374554;22;20033;-92
2023/12/22 09:35:01;;;;;;;9.48;2.45;;;10.20;99.90;;;;;;6376059;22;20198;-93
2023/12/22 09:37:27;;;;;;;11.40;1.73;;;10.00;99.90;;;;;;6378430;22;20002;-94
2023/12/22 09:39:54;;;;;;;9.45;1.90;;;10.70;99.90;;;;;;6373985;22;20002;-92
2023/12/22 09:45:26;;;;;;;8.90;1.60;;;10.00;99.90;;;;;;6398554;22;20002;-92
2023/12/22 09:47:56;;;;;;;6.80;1.80;;;10.90;99.90;;;;;;6383448;22;20009;-91
2023/12/22 09:50:22;;;;;;;6.57;1.63;;;10.50;99.90;;;;;;6373914;22;19998;-94
2023/12/22 09:53:11;;;;;;;6.03;1.52;;;10.90;99.90;;;;;;6373592;22;20014;-88
2023/12/22 09:55:45;;;;;;;9.82;1.55;;;11.20;99.90;;;;;;6386490;22;20006;-88
2023/12/22 09:58:13;;;;;;;10.07;2.25;;;10.80;99.90;;;;;;6371608;22;20010;-93
2023/12/22 10:00:43;;;;;;;6.97;1.63;;;11.10;99.90;;;;;;6387922;22;19995;-90
2023/12/22 10:03:14;;;;;;;13.18;2.15;;;10.80;99.90;;;;;;6388286;22;20023;-89
2023/12/22 10:05:48;;;;;;;7.28;1.55;;;9.80;99.90;;;;;;6392689;22;20012;-91
2023/12/22 10:08:19;;;;;;;4.45;1.30;;;10.50;99.90;;;;;;6391498;22;20014;-91
2023/12/22 10:11:05;;;;;;;;;;;11.10;99.90;;;;;;6378286;22;20422;-87
2023/12/22 10:13:41;;;;;;;8.55;2.22;;;10.30;99.90;;;;;;6380396;22;19902;-91
2023/12/22 10:16:07;;;;;;;10.10;1.77;;;11.20;99.90;;;;;;6378270;22;20025;-86
2023/12/22 10:18:46;;;;;;;8.00;1.55;;;10.80;99.90;;;;;;6374239;22;20028;-94
2023/12/22 10:21:13;;;;;;;8.23;1.38;;;10.40;99.90;;;;;;6374361;22;20033;-94
2023/12/22 10:23:39;;;;;;;7.35;2.25;;;10.00;99.90;;;;;;6369587;22;20069;-89
2023/12/22 10:26:05;;;;;;;6.32;1.60;;;10.20;99.90;;;;;;6368894;22;20142;-85
2023/12/22 10:28:30;;;;;;;13.18;1.75;;;10.20;99.90;;;;;;6368775;22;19998;-91
2023/12/22 10:31:20;;;;;;;8.98;2.15;;;10.30;99.90;;;;;;6375388;22;20031;-93
2023/12/22 10:33:46;;;;;;;8.00;1.52;;;10.40;99.90;;;;;;6370165;22;20040;-90
2023/12/22 10:36:31;;;;;;;5.35;1.63;;;10.80;99.90;;;;;;6370037;22;19998;-93
2023/12/22 10:38:57;;;;;;;10.23;1.60;;;10.30;99.90;;;;;;6369977;22;20025;-89
2023/12/22 10:41:23;;;;;;;7.85;1.67;;;11.20;99.90;;;;;;6372981;22;20003;-89
2023/12/22 10:43:51;;;;;;;8.98;2.63;;;11.70;99.90;;;;;;6366520;22;20026;-90
2023/12/22 10:46:17;;;;;;;8.40;1.52;;;11.90;99.90;;;;;;6386511;22;20350;-95
2023/12/22 10:51:35;;;;;;;10.02;1.52;;;10.50;99.90;;;;;;6365547;22;20026;-88
2023/12/22 10:54:04;;;;;;;10.27;1.75;;;10.60;99.90;;;;;;6370587;22;20002;-94
2023/12/22 10:56:30;;;;;;;4.90;1.30;;;10.50;99.90;;;;;;6374684;22;20395;-86
2023/12/22 10:58:56;;;;;;;8.88;1.60;;;10.50;99.90;;;;;;6367253;22;20414;-91
2023/12/22 11:01:23;;;;;;;9.07;2.17;;;10.60;99.90;;;;;;6367172;22;20002;-89
2023/12/22 11:03:51;;;;;;;4.47;1.15;;;10.60;99.90;;;;;;6376236;22;20055;-90
2023/12/22 11:06:17;;;;;;;11.15;1.85;;;11.40;99.90;;;;;;6396581;22;20011;-89
2023/12/22 11:08:46;;;;;;;6.28;1.40;;;10.60;99.90;;;;;;6373528;22;20347;-91
2023/12/22 11:11:20;;;;;;;12.57;2.22;;;10.70;99.90;;;;;;6375797;22;20478;-90
2023/12/22 11:13:47;;;;;;;17.98;3.88;;;10.20;99.90;;;;;;6372281;22;20005;-91
2023/12/22 11:16:33;;;;;;;15.98;4.50;;;11.00;99.90;;;;;;6371955;22;20003;-92
2023/12/22 11:18:59;;;;;;;10.18;2.25;;;10.70;99.90;;;;;;6369950;22;19994;-85
2023/12/22 11:21:26;;;;;;;5.88;1.88;;;11.60;99.90;;;;;;6369436;22;20079;-90
2023/12/22 11:24:03;;;;;;;9.05;2.05;;;11.60;99.90;;;;;;6377499;22;20066;-90
2023/12/22 11:26:42;;;;;;;12.32;2.45;;;10.70;99.90;;;;;;6376675;22;20002;-90
2023/12/22 11:29:10;;;;;;;6.50;1.75;;;11.70;99.90;;;;;;6386437;22;20006;-92
2023/12/22 11:31:46;;;;;;;9.23;1.73;;;11.90;99.90;;;;;;6390585;22;20010;-93
2023/12/22 11:34:12;;;;;;;9.00;1.60;;;11.50;99.90;;;;;;6375146;22;20347;-89
2023/12/22 11:36:38;;;;;;;12.52;2.38;;;10.50;99.90;;;;;;6368093;22;19998;-93
2023/12/22 11:39:04;;;;;;;8.93;2.05;;;11.70;99.90;;;;;;6371249;22;20094;-87
2023/12/22 11:41:35;;;;;;;7.68;1.70;;;12.00;99.90;;;;;;6376545;22;20006;-91
2023/12/22 11:44:01;;;;;;;;;;;11.80;99.90;;;;;;6389104;22;20093;-89
2023/12/22 11:46:27;;;;;;;10.98;1.90;;;10.70;99.90;;;;;;6374793;22;19984;-92
2023/12/22 11:49:02;;;;;;;9.10;2.60;;;10.70;99.90;;;;;;6373775;22;19999;-92
2023/12/22 11:51:34;;;;;;;8.57;1.83;;;11.50;99.90;;;;;;6372894;22;20022;-92
2023/12/22 11:54:01;;;;;;;13.98;2.45;;;10.70;99.90;;;;;;6372684;22;19998;-88
2023/12/22 11:56:29;;;;;;;9.32;2.15;;;10.70;99.90;;;;;;6341741;22;20002;-91
2023/12/22 11:58:57;;;;;;;10.60;2.33;;;10.70;99.90;;;;;;6371768;22;20418;-89
2023/12/22 12:01:24;;;;;;;8.35;2.20;;;10.70;99.90;;;;;;6372385;22;20037;-93
2023/12/22 12:03:53;;;;;;;11.50;2.35;;;10.60;99.90;;;;;;6371713;22;19994;-88
2023/12/22 12:06:30;;;;;;;13.23;2.50;;;10.70;99.90;;;;;;6370789;22;19998;-89
2023/12/22 12:09:03;;;;;;;4.53;1.65;;;10.70;99.90;;;;;;6371342;22;20363;-87
2023/12/22 12:11:54;;;;;;;15.82;2.03;;;10.70;99.90;;;;;;6371371;22;20014;-88
2023/12/22 12:14:33;;;;;;;10.98;1.92;;;10.70;99.90;;;;;;6372016;22;19998;-88
2023/12/22 12:17:08;;;;;;;9.40;2.63;;;10.70;99.90;;;;;;6369807;22;20013;-89
2023/12/22 12:19:37;;;;;;;12.27;1.65;;;10.70;99.90;;;;;;6375669;22;19994;-88
2023/12/22 12:22:03;;;;;;;9.35;1.77;;;10.70;99.90;;;;;;6371063;22;20029;-93
2023/12/22 12:24:29;;;;;;;12.52;1.98;;;10.70;99.90;;;;;;6370057;22;20002;-92
2023/12/22 12:26:55;;;;;;;8.13;1.75;;;10.70;99.90;;;;;;6369971;22;20014;-86
2023/12/22 12:29:23;;;;;;;10.30;1.80;;;10.70;99.90;;;;;;6371036;22;19995;-91
2023/12/22 12:31:49;;;;;;;5.80;2.00;;;10.80;99.90;;;;;;6370823;22;20010;-90
2023/12/22 12:34:17;;;;;;;8.38;1.77;;;10.70;99.90;;;;;;6371218;22;20010;-86
2023/12/22 12:36:45;;;;;;;6.47;1.70;;;10.70;99.90;;;;;;6390069;22;20010;-88
2023/12/22 12:39:15;;;;;;;9.88;2.17;;;10.80;99.90;;;;;;6387458;22;20077;-93
2023/12/22 12:41:44;;;;;;;9.73;2.38;;;10.70;99.90;;;;;;6378295;22;20022;-92
2023/12/22 12:44:10;;;;;;;5.82;1.90;;;11.00;99.90;;;;;;6372382;22;20011;-91
2023/12/22 12:46:37;;;;;;;7.35;1.45;;;10.70;99.90;;;;;;6378837;22;19998;-90
2023/12/22 12:49:06;;;;;;;5.72;1.85;;;10.80;99.90;;;;;;6381087;22;20010;-92
2023/12/22 12:51:39;;;;;;;14.15;2.45;;;11.30;99.90;;;;;;6371545;22;20019;-91
2023/12/22 12:54:10;;;;;;;11.35;1.85;;;10.80;99.90;;;;;;6371504;22;20014;-92
2023/12/22 12:56:40;;;;;;;6.53;2.20;;;10.80;99.90;;;;;;6371702;22;20013;-94